ブダペスト の空港の天気 - METARとTAF

ブダペスト/フェリヘギ空港 ( LHBP / BUD ) - ハンガリー ブダペスト
飛行場実況気象(Metar)
観測時間07/09 16:00 CEST (07/09 14:00 UTC)
風向・風速西南西 4m/s
視程10km以上
天気現象
なし
気温29℃
湿度40%
気圧1017hPa
METARLHBP 091400Z 25007KT 200V280 CAVOK 29/14 Q1017 NOSIG
過去の天気等 Google飛行場航空写真 Wunderground天気予報

過去48時間のMETAR

飛行場予報(TAF)
発表時間: 7/09 13:15 CEST (7/09 11:15 UTC)
予報対象時間: 9日14時 CEST ~ 10日14時 CEST
風向・風速西 4m/s
視程10km以上
なし
9日16時 CEST ~ 9日18時 CEST に徐々に
風向・風速不定 2m/s
10日9時 CEST ~ 10日11時 CEST に徐々に
風向・風速南 5m/s 瞬間風速 10m/s
TAF LHBP 091115Z 0912/1012 28008KT CAVOK
BECMG 0914/0916 VRB03KT
BECMG 1007/1009 17010G20KT